Time;durP1;ratioP1;P1;durP2;ratioP2;P2;SDS_P1;SDS_P2;PMS_P1;PMS_P2;Temp;Humidity;BMP_temperature;BMP_pressure;BME280_temperature;BME280_humidity;BME280_pressure;Samples;Min_cycle;Max_cycle;Signal;HPM_P1;HPM_P2
2022/06/24 00:01:54;;;;;;;10.93;6.20;;;;;;;20.51;100.00;100511.66;5072065;28;20507;-48
2022/06/24 00:04:24;;;;;;;9.73;5.72;;;;;;;20.55;100.00;100496.13;5072097;28;20056;-48
2022/06/24 00:06:52;;;;;;;10.57;5.55;;;;;;;20.67;100.00;100496.56;5072178;28;20069;-46
2022/06/24 00:09:26;;;;;;;9.98;5.53;;;;;;;20.60;100.00;100480.41;5068106;28;20052;-48
2022/06/24 00:12:08;;;;;;;12.98;5.97;;;;;;;20.61;100.00;100466.03;5068663;28;20052;-51
2022/06/24 00:14:36;;;;;;;11.30;5.75;;;;;;;20.59;100.00;100452.88;5072162;28;20090;-49
2022/06/24 00:17:12;;;;;;;10.30;5.85;;;;;;;20.59;100.00;100444.03;5072102;28;20059;-49
2022/06/24 00:19:54;;;;;;;9.35;5.68;;;;;;;20.59;100.00;100438.69;5071939;28;20423;-51
2022/06/24 00:22:22;;;;;;;9.80;5.97;;;;;;;20.57;100.00;100438.88;5068630;28;20041;-53
2022/06/24 00:25:07;;;;;;;10.23;5.88;;;;;;;20.53;100.00;100437.56;5066765;28;20079;-52
2022/06/24 00:27:35;;;;;;;13.93;6.32;;;;;;;20.44;100.00;100428.72;5071685;28;20048;-52
2022/06/24 00:30:09;;;;;;;10.77;6.68;;;;;;;20.38;100.00;100421.44;5071755;28;20452;-54
2022/06/24 00:32:37;;;;;;;11.10;7.18;;;;;;;20.45;100.00;100421.56;5070749;28;20110;-50
2022/06/24 00:35:13;;;;;;;12.93;7.05;;;;;;;20.45;100.00;100432.25;5069336;28;20102;-55
2022/06/24 00:37:43;;;;;;;10.70;7.30;;;;;;;20.35;100.00;100440.44;5069006;28;20105;-46
2022/06/24 00:40:25;;;;;;;11.73;7.07;;;;;;;20.33;100.00;100433.63;5068932;28;20044;-54
2022/06/24 00:42:54;;;;;;;10.32;7.20;;;;;;;20.32;100.00;100424.78;5073203;28;20510;-53
2022/06/24 00:45:30;;;;;;;11.13;7.50;;;;;;;20.37;100.00;100440.28;5075379;28;20391;-50
2022/06/24 00:47:58;;;;;;;14.38;7.68;;;;;;;20.42;100.00;100440.59;5075791;28;20384;-54
2022/06/24 00:50:29;;;;;;;12.38;7.43;;;;;;;20.49;100.00;100446.06;5075472;28;20439;-53
2022/06/24 00:52:59;;;;;;;10.82;7.28;;;;;;;20.47;100.00;100464.94;5075191;28;20060;-52
2022/06/24 00:55:30;;;;;;;12.15;8.05;;;;;;;20.38;100.00;100504.22;5069805;28;20492;-50
2022/06/24 00:58:00;;;;;;;13.15;8.07;;;;;;;20.17;100.00;100544.81;5071861;28;20049;-48
2022/06/24 01:00:31;;;;;;;13.02;8.30;;;;;;;20.14;100.00;100592.34;5074799;28;20499;-52
2022/06/24 01:03:00;;;;;;;14.55;7.70;;;;;;;20.18;100.00;100604.34;5074631;28;20384;-52
2022/06/24 01:05:30;;;;;;;13.57;8.48;;;;;;;19.96;100.00;100621.91;5071657;28;20037;-52
2022/06/24 01:07:59;;;;;;;13.07;9.20;;;;;;;20.00;100.00;100640.09;5071509;28;20185;-52
2022/06/24 01:10:28;;;;;;;14.70;8.70;;;;;;;20.05;100.00;100631.56;5074467;28;20442;-50
2022/06/24 01:12:56;;;;;;;12.35;8.65;;;;;;;19.93;100.00;100628.41;5074605;28;20110;-50
2022/06/24 01:15:24;;;;;;;12.60;8.80;;;;;;;19.97;100.00;100629.72;5074294;28;20051;-50
2022/06/24 01:17:52;;;;;;;13.90;8.88;;;;;;;20.02;100.00;100647.94;5072053;28;20553;-49
2022/06/24 01:20:20;;;;;;;15.27;9.18;;;;;;;20.04;100.00;100635.25;5070705;28;20052;-52
2022/06/24 01:22:50;;;;;;;12.63;9.68;;;;;;;20.05;100.00;100637.75;5074279;28;20052;-52
2022/06/24 01:25:18;;;;;;;13.60;9.10;;;;;;;20.09;100.00;100635.59;5074638;28;20110;-51
2022/06/24 01:27:46;;;;;;;13.05;9.98;;;;;;;20.11;100.00;100625.59;5074492;28;20495;-53
2022/06/24 01:30:14;;;;;;;14.15;10.02;;;;;;;20.12;100.00;100597.88;5071669;28;20076;-50
2022/06/24 01:32:42;;;;;;;13.43;9.45;;;;;;;20.11;100.00;100593.56;5070703;28;20438;-51
2022/06/24 01:35:13;;;;;;;14.13;10.77;;;;;;;20.07;100.00;100577.03;5073493;28;20054;-50
2022/06/24 01:37:41;;;;;;;17.48;11.55;;;;;;;20.08;100.00;100561.84;5074353;28;20101;-53
2022/06/24 01:40:13;;;;;;;14.27;11.05;;;;;;;20.04;100.00;100552.50;5074340;28;20056;-48
2022/06/24 01:42:41;;;;;;;16.38;11.77;;;;;;;19.97;100.00;100544.34;5071852;28;20511;-53
2022/06/24 01:45:10;;;;;;;15.77;12.10;;;;;;;19.99;100.00;100539.69;5069984;28;20106;-53
2022/06/24 01:47:38;;;;;;;16.52;11.68;;;;;;;19.99;100.00;100539.69;5073667;28;20048;-46
2022/06/24 01:50:07;;;;;;;17.92;11.68;;;;;;;19.98;100.00;100539.84;5074493;28;20072;-47
2022/06/24 01:52:35;;;;;;;16.30;11.20;;;;;;;19.90;100.00;100522.00;5074009;28;20057;-49
2022/06/24 01:55:05;;;;;;;13.73;11.77;;;;;;;19.81;100.00;100504.34;5073178;28;20064;-56
2022/06/24 01:57:35;;;;;;;13.05;11.02;;;;;;;19.82;100.00;100500.66;5074314;28;20044;-52
2022/06/24 02:00:03;;;;;;;16.85;11.40;;;;;;;19.74;100.00;100510.31;5071429;28;20071;-53
2022/06/24 02:02:33;;;;;;;13.38;9.73;;;;;;;19.77;100.00;100526.00;5070745;28;20055;-53
2022/06/24 02:05:02;;;;;;;13.93;9.82;;;;;;;19.82;100.00;100533.50;5074385;28;20464;-47
2022/06/24 02:07:30;;;;;;;13.60;9.73;;;;;;;19.75;100.00;100540.50;5074476;28;20076;-48
2022/06/24 02:15:32;;;;;;;16.15;10.32;;;;;;;19.80;100.00;100572.03;5072583;28;20059;-48
2022/06/24 02:18:00;;;;;;;16.20;10.38;;;;;;;19.81;100.00;100590.56;5073819;28;20044;-48
2022/06/24 02:20:29;;;;;;;14.43;10.75;;;;;;;19.86;100.00;100588.19;5073874;28;20064;-46
2022/06/24 02:22:57;;;;;;;16.67;11.73;;;;;;;19.83;100.00;100553.03;5070204;28;20055;-53
2022/06/24 02:25:25;;;;;;;16.20;10.73;;;;;;;19.76;100.00;100536.84;5065433;28;20048;-50
2022/06/24 02:27:54;;;;;;;14.95;10.57;;;;;;;19.70;100.00;100541.00;5067756;28;20510;-51
2022/06/24 02:30:22;;;;;;;14.30;8.85;;;;;;;19.63;100.00;100547.16;5056315;28;20480;-48
2022/06/24 02:32:50;;;;;;;10.93;6.95;;;;;;;19.61;100.00;100566.00;5064551;28;20048;-51
2022/06/24 02:35:18;;;;;;;12.82;7.35;;;;;;;19.52;100.00;100567.00;5060075;28;20069;-48
2022/06/24 02:37:46;;;;;;;11.98;7.13;;;;;;;19.56;100.00;100565.66;5066795;28;20086;-49
2022/06/24 02:43:01;;;;;;;9.85;6.85;;;;;;;19.56;100.00;100555.81;5056683;28;20442;-52
2022/06/24 02:45:29;;;;;;;9.52;6.38;;;;;;;19.48;100.00;100555.00;5063939;28;20052;-51
2022/06/24 02:47:57;;;;;;;9.52;6.40;;;;;;;19.49;100.00;100552.16;5064360;28;20041;-50
2022/06/24 02:50:25;;;;;;;8.38;6.13;;;;;;;19.50;100.00;100540.50;5062418;28;20709;-53
2022/06/24 02:52:53;;;;;;;10.05;5.47;;;;;;;19.51;100.00;100533.31;5071658;28;20063;-53
2022/06/24 02:55:21;;;;;;;10.15;6.35;;;;;;;19.51;100.00;100525.31;5046980;28;20124;-51
2022/06/24 02:57:49;;;;;;;10.02;5.57;;;;;;;19.46;100.00;100512.50;5058147;28;20033;-54
2022/06/24 03:00:19;;;;;;;9.75;5.20;;;;;;;19.38;100.00;100496.50;5060238;28;20045;-54
2022/06/24 03:02:47;;;;;;;8.05;4.75;;;;;;;19.32;100.00;100475.81;5060186;28;20045;-54
2022/06/24 03:05:15;;;;;;;6.88;4.00;;;;;;;19.26;100.00;100474.66;5059782;28;20090;-49
2022/06/24 03:07:43;;;;;;;4.88;2.88;;;;;;;19.14;100.00;100499.97;5055997;28;20036;-53
2022/06/24 03:10:11;;;;;;;5.15;2.65;;;;;;;19.11;100.00;100502.97;5067358;28;20119;-51
2022/06/24 03:12:39;;;;;;;5.65;2.00;;;;;;;19.04;100.00;100518.78;5059037;28;20052;-46
2022/06/24 03:15:09;;;;;;;3.47;1.60;;;;;;;18.87;100.00;100532.03;5069268;28;20041;-54
2022/06/24 03:17:39;;;;;;;2.67;1.58;;;;;;;18.79;100.00;100539.13;5057227;28;20068;-49
2022/06/24 03:20:09;;;;;;;5.15;1.60;;;;;;;18.75;100.00;100534.13;5061960;28;20037;-47
2022/06/24 03:22:38;;;;;;;1.63;1.13;;;;;;;18.69;100.00;100524.16;5066718;28;20767;-55
2022/06/24 03:25:08;;;;;;;3.78;1.52;;;;;;;18.69;100.00;100509.97;5061574;28;20555;-47
2022/06/24 03:27:38;;;;;;;6.07;1.60;;;;;;;18.59;100.00;100502.13;5050641;28;20057;-50
2022/06/24 03:30:08;;;;;;;2.13;1.55;;;;;;;18.52;100.00;100517.09;5070147;28;20040;-48
2022/06/24 03:32:36;;;;;;;4.68;1.90;;;;;;;18.53;100.00;100514.25;5054928;28;20399;-49
2022/06/24 03:35:13;;;;;;;4.43;1.92;;;;;;;18.57;100.00;100509.44;5065245;28;20074;-51
2022/06/24 03:37:41;;;;;;;4.45;2.10;;;;;;;18.53;100.00;100502.78;5060306;28;20072;-54
2022/06/24 03:40:10;;;;;;;5.05;1.90;;;;;;;18.57;100.00;100488.16;5047128;28;20073;-48
2022/06/24 03:42:38;;;;;;;5.78;2.25;;;;;;;18.53;100.00;100482.31;5056787;28;20532;-48
2022/06/24 03:45:07;;;;;;;5.72;2.30;;;;;;;18.54;100.00;100483.13;5069231;28;20083;-55
2022/06/24 03:47:36;;;;;;;4.95;2.42;;;;;;;18.51;100.00;100488.78;5065496;28;20047;-49
2022/06/24 03:50:04;;;;;;;6.38;2.50;;;;;;;18.60;100.00;100490.47;5050590;28;20091;-47
2022/06/24 03:52:34;;;;;;;4.57;2.42;;;;;;;18.59;100.00;100494.13;5062379;28;20056;-50
2022/06/24 03:55:02;;;;;;;4.88;2.60;;;;;;;18.47;100.00;100498.09;5066795;28;20045;-54
2022/06/24 03:57:30;;;;;;;5.00;2.53;;;;;;;18.44;100.00;100493.09;5064525;28;20064;-48
2022/06/24 03:59:58;;;;;;;5.82;2.40;;;;;;;18.47;100.00;100482.09;5066285;28;20041;-54
2022/06/24 04:02:26;;;;;;;4.97;2.05;;;;;;;18.39;100.00;100469.59;5068163;28;20048;-53
2022/06/24 04:04:55;;;;;;;3.65;2.00;;;;;;;18.37;100.00;100460.94;5067752;28;20049;-55
2022/06/24 04:07:23;;;;;;;4.85;2.35;;;;;;;18.26;100.00;100443.44;5057608;28;20060;-50
2022/06/24 04:09:53;;;;;;;5.85;2.40;;;;;;;18.17;100.00;100439.06;5046851;28;20128;-55
2022/06/24 04:12:21;;;;;;;5.20;2.10;;;;;;;18.19;100.00;100442.41;5063421;28;20049;-45
2022/06/24 04:17:34;;;;;;;6.53;3.00;;;;;;;18.18;100.00;100448.72;5060741;28;20037;-53
2022/06/24 04:20:02;;;;;;;8.18;2.22;;;;;;;18.15;100.00;100457.84;5072529;28;20131;-55
2022/06/24 04:22:30;;;;;;;5.10;2.10;;;;;;;18.14;100.00;100466.00;5066615;28;20040;-52
2022/06/24 04:25:00;;;;;;;4.72;2.00;;;;;;;18.13;100.00;100470.47;5069341;28;20468;-54
2022/06/24 04:27:29;;;;;;;4.93;2.08;;;;;;;18.17;100.00;100481.63;5065205;28;20060;-54
2022/06/24 04:30:00;;;;;;;7.20;2.58;;;;;;;18.20;100.00;100479.50;5061768;28;20098;-54
2022/06/24 04:32:28;;;;;;;5.57;2.53;;;;;;;18.24;100.00;100486.19;5066764;28;20045;-54
2022/06/24 04:34:57;;;;;;;5.38;2.40;;;;;;;18.09;100.00;100493.06;5065338;28;20048;-52
2022/06/24 04:37:25;;;;;;;8.25;2.78;;;;;;;18.08;100.00;100505.53;5062808;28;20095;-50
2022/06/24 04:39:53;;;;;;;5.32;2.55;;;;;;;18.17;100.00;100502.94;5069785;28;20040;-46
2022/06/24 04:42:23;;;;;;;6.50;2.65;;;;;;;18.24;100.00;100514.59;5055785;28;20847;-51
2022/06/24 04:44:51;;;;;;;7.53;2.53;;;;;;;18.16;100.00;100518.06;5063533;28;20045;-51
2022/06/24 04:47:19;;;;;;;5.55;2.95;;;;;;;18.23;100.00;100508.44;5069937;28;20530;-51
2022/06/24 04:49:47;;;;;;;5.70;2.40;;;;;;;18.30;100.00;100511.31;5060754;28;20041;-49
2022/06/24 04:52:16;;;;;;;7.32;2.60;;;;;;;18.32;100.00;100517.31;5050955;28;20065;-45
2022/06/24 04:54:45;;;;;;;4.75;2.47;;;;;;;18.32;100.00;100517.31;5066643;28;20048;-52
2022/06/24 04:57:13;;;;;;;5.75;2.50;;;;;;;18.32;100.00;100513.81;5065012;28;20128;-50
2022/06/24 04:59:42;;;;;;;4.80;2.63;;;;;;;18.28;100.00;100510.63;5069200;28;20116;-50
2022/06/24 05:02:10;;;;;;;5.38;2.38;;;;;;;18.22;100.00;100511.28;5062308;28;20111;-48
2022/06/24 05:04:38;;;;;;;5.00;2.40;;;;;;;18.24;100.00;100519.91;5065697;28;20495;-53
2022/06/24 05:07:07;;;;;;;6.35;2.63;;;;;;;18.25;100.00;100518.94;5065435;28;20036;-48
2022/06/24 05:09:36;;;;;;;4.55;2.40;;;;;;;18.21;100.00;100518.41;5062023;28;20045;-49
2022/06/24 05:12:05;;;;;;;4.75;2.80;;;;;;;18.29;100.00;100511.47;5065596;28;20102;-46
2022/06/24 05:14:34;;;;;;;7.53;2.90;;;;;;;18.31;100.00;100513.00;5069386;28;20044;-47
2022/06/24 05:17:04;;;;;;;6.32;2.83;;;;;;;18.37;100.00;100507.03;5058964;28;20045;-47
2022/06/24 05:19:32;;;;;;;5.60;2.88;;;;;;;18.44;100.00;100498.41;5061321;28;20522;-46
2022/06/24 05:22:00;;;;;;;7.03;2.80;;;;;;;18.47;100.00;100493.56;5067651;28;20369;-51
2022/06/24 05:24:28;;;;;;;7.15;2.97;;;;;;;18.44;100.00;100487.75;5069454;28;20387;-51
2022/06/24 05:26:56;;;;;;;4.00;2.25;;;;;;;18.41;100.00;100483.59;5063470;28;20045;-49
2022/06/24 05:29:24;;;;;;;6.70;2.80;;;;;;;18.40;100.00;100484.56;5061687;28;20466;-52
2022/06/24 05:31:52;;;;;;;4.82;2.58;;;;;;;18.42;100.00;100491.41;5064929;28;20368;-47
2022/06/24 05:34:22;;;;;;;5.15;2.45;;;;;;;18.42;100.00;100495.91;5061623;28;20373;-49
2022/06/24 05:36:50;;;;;;;8.80;2.50;;;;;;;18.36;100.00;100496.53;5054070;28;20060;-52
2022/06/24 05:39:18;;;;;;;5.93;2.40;;;;;;;18.33;100.00;100492.34;5054713;28;20053;-50
2022/06/24 05:41:46;;;;;;;6.28;2.25;;;;;;;18.42;100.00;100499.41;5050198;28;20520;-44
2022/06/24 05:44:14;;;;;;;6.45;2.47;;;;;;;18.34;100.00;100491.38;5064945;28;20048;-48
2022/06/24 05:46:42;;;;;;;6.45;2.60;;;;;;;18.43;100.00;100492.22;5063924;28;20673;-53
2022/06/24 05:49:11;;;;;;;7.68;3.45;;;;;;;18.50;100.00;100498.59;5068728;28;20086;-45
2022/06/24 05:51:41;;;;;;;6.93;3.05;;;;;;;18.47;100.00;100496.25;5056304;28;20706;-47
2022/06/24 05:57:06;;;;;;;7.00;3.20;;;;;;;18.41;100.00;100503.03;4991288;28;20050;-45
2022/06/24 05:59:37;;;;;;;7.03;2.60;;;;;;;18.38;100.00;100505.22;5052396;28;20052;-53
2022/06/24 06:02:06;;;;;;;6.22;3.28;;;;;;;18.31;100.00;100520.97;5067075;28;20044;-52
2022/06/24 06:04:34;;;;;;;5.82;2.92;;;;;;;18.34;100.00;100520.66;5055137;28;20051;-54
2022/06/24 06:07:04;;;;;;;6.45;3.53;;;;;;;18.41;100.00;100516.34;5063348;28;20438;-54
2022/06/24 06:09:34;;;;;;;6.38;3.08;;;;;;;18.46;100.00;100515.91;5051378;28;20435;-49
2022/06/24 06:12:02;;;;;;;6.28;3.17;;;;;;;18.42;100.00;100525.19;5056480;28;20113;-51
2022/06/24 06:14:30;;;;;;;6.03;2.85;;;;;;;18.44;100.00;100512.53;5064125;28;20049;-49
2022/06/24 06:17:02;;;;;;;8.05;3.55;;;;;;;18.51;100.00;100518.06;5057005;28;20559;-52
2022/06/24 06:19:32;;;;;;;8.73;3.50;;;;;;;18.38;100.00;100527.31;5069930;28;20047;-48
2022/06/24 06:22:00;;;;;;;9.10;3.80;;;;;;;18.28;100.00;100526.59;5051277;28;20102;-53
2022/06/24 06:24:30;;;;;;;5.65;3.13;;;;;;;18.32;100.00;100527.13;5066931;28;20052;-52
2022/06/24 06:26:59;;;;;;;8.23;3.50;;;;;;;18.34;100.00;100530.47;5060632;28;20041;-49
2022/06/24 06:29:27;;;;;;;7.30;3.30;;;;;;;18.34;100.00;100531.31;5061114;28;20033;-49
2022/06/24 06:31:56;;;;;;;6.63;3.58;;;;;;;18.42;100.00;100534.00;5059848;28;20056;-45
2022/06/24 06:34:24;;;;;;;8.43;3.85;;;;;;;18.50;100.00;100522.56;5052913;28;20123;-54
2022/06/24 06:36:53;;;;;;;7.03;3.58;;;;;;;18.55;100.00;100522.06;5069255;28;20102;-45
2022/06/24 06:39:21;;;;;;;9.27;4.55;;;;;;;18.51;100.00;100528.72;5065675;28;20541;-53
2022/06/24 06:41:50;;;;;;;7.35;4.35;;;;;;;18.59;100.00;100523.44;5054779;28;20045;-48
2022/06/24 06:44:18;;;;;;;8.35;4.43;;;;;;;18.62;100.00;100515.09;5066372;28;20495;-45
2022/06/24 06:46:46;;;;;;;9.48;4.22;;;;;;;18.60;100.00;100519.78;5059805;28;20488;-49
2022/06/24 06:49:14;;;;;;;8.27;4.30;;;;;;;18.71;100.00;100524.81;5058733;28;20041;-45
2022/06/24 06:51:43;;;;;;;7.80;3.90;;;;;;;18.57;100.00;100522.75;5061485;28;20048;-46
2022/06/24 06:54:11;;;;;;;7.32;3.78;;;;;;;18.68;100.00;100527.78;5056078;28;20037;-43
2022/06/24 06:56:40;;;;;;;7.57;4.00;;;;;;;18.57;100.00;100542.22;5054626;28;20403;-52
2022/06/24 06:59:10;;;;;;;8.50;3.83;;;;;;;18.55;100.00;100544.19;5070681;28;20055;-48
2022/06/24 07:01:38;;;;;;;8.85;3.63;;;;;;;18.54;100.00;100549.69;5056437;28;20079;-55
2022/06/24 07:04:07;;;;;;;7.22;4.10;;;;;;;18.60;100.00;100551.72;5062045;28;20083;-54
2022/06/24 07:06:35;;;;;;;7.43;3.83;;;;;;;18.58;100.00;100564.34;5062733;28;20495;-48
2022/06/24 07:09:03;;;;;;;7.13;3.63;;;;;;;18.61;100.00;100553.41;5056144;28;20041;-49
2022/06/24 07:11:31;;;;;;;8.00;3.88;;;;;;;18.68;100.00;100549.09;5060895;28;20499;-47
2022/06/24 07:14:00;;;;;;;7.97;4.07;;;;;;;18.73;100.00;100568.09;5063997;28;20075;-47
2022/06/24 07:16:29;;;;;;;8.75;4.13;;;;;;;18.83;100.00;100557.31;5058398;28;20037;-49
2022/06/24 07:18:57;;;;;;;7.65;4.10;;;;;;;18.95;100.00;100559.72;5066856;28;20514;-51
2022/06/24 07:21:25;;;;;;;9.82;4.45;;;;;;;18.85;100.00;100565.16;5062980;28;20082;-54
2022/06/24 07:23:54;;;;;;;8.38;4.28;;;;;;;18.84;100.00;100563.47;5069272;28;20048;-51
2022/06/24 07:26:22;;;;;;;8.88;4.32;;;;;;;18.87;100.00;100563.13;5069656;28;20068;-47
2022/06/24 07:28:50;;;;;;;8.70;4.68;;;;;;;18.87;100.00;100565.81;5053263;28;20051;-49
2022/06/24 07:31:19;;;;;;;10.80;4.53;;;;;;;19.00;100.00;100555.56;5065565;28;20068;-47
2022/06/24 07:33:49;;;;;;;9.57;4.70;;;;;;;19.02;100.00;100555.41;5061603;28;20036;-50
2022/06/24 07:36:17;;;;;;;10.55;4.55;;;;;;;19.00;100.00;100557.41;5059015;28;20053;-49
2022/06/24 07:38:45;;;;;;;8.13;4.30;;;;;;;18.99;100.00;100561.91;5059393;28;20060;-49
2022/06/24 07:41:14;;;;;;;8.02;4.18;;;;;;;19.07;100.00;100561.06;5049416;28;20132;-53
2022/06/24 07:43:42;;;;;;;7.35;4.20;;;;;;;19.07;100.00;100556.59;5058385;28;20045;-51
2022/06/24 07:46:11;;;;;;;10.10;4.97;;;;;;;19.09;100.00;100554.59;5063919;28;20402;-50
2022/06/24 07:48:39;;;;;;;10.77;5.40;;;;;;;19.05;100.00;100550.59;5056886;28;20045;-53
2022/06/24 07:51:15;;;;;;;11.75;5.95;;;;;;;19.12;100.00;100549.94;5052436;28;20519;-54
2022/06/24 07:53:45;;;;;;;10.52;5.97;;;;;;;19.13;100.00;100543.59;5056277;28;20052;-53
2022/06/24 07:59:03;;;;;;;9.88;6.43;;;;;;;19.21;100.00;100532.94;5057143;28;20063;-46
2022/06/24 08:01:31;;;;;;;8.50;6.28;;;;;;;19.29;100.00;100532.13;5067845;28;20075;-54
2022/06/24 08:04:00;;;;;;;9.30;6.28;;;;;;;19.25;100.00;100528.97;5060051;28;20102;-47
2022/06/24 08:06:29;;;;;;;10.88;6.57;;;;;;;19.19;100.00;100541.13;5054658;28;20044;-47
2022/06/24 08:08:57;;;;;;;11.25;6.57;;;;;;;19.19;100.00;100548.28;5058297;28;20809;-49
2022/06/24 08:11:25;;;;;;;10.57;5.93;;;;;;;19.20;100.00;100549.97;5051592;28;20877;-52
2022/06/24 08:13:53;;;;;;;10.77;6.75;;;;;;;19.12;100.00;100553.44;5050382;28;20068;-54
2022/06/24 08:16:22;;;;;;;11.32;7.03;;;;;;;19.16;100.00;100540.63;5050536;28;21631;-55
2022/06/24 08:18:51;;;;;;;10.80;7.15;;;;;;;19.11;100.00;100546.44;5059058;28;20041;-53
2022/06/24 08:21:19;;;;;;;10.00;6.95;;;;;;;19.15;100.00;100545.09;5056038;28;20565;-53
2022/06/24 08:23:48;;;;;;;10.30;7.35;;;;;;;19.19;100.00;100534.97;5047639;28;20055;-51
2022/06/24 08:26:17;;;;;;;13.00;7.53;;;;;;;19.18;100.00;100547.47;5059917;28;20052;-52
2022/06/24 08:28:45;;;;;;;12.68;8.02;;;;;;;19.16;100.00;100540.63;5062172;28;20036;-49
2022/06/24 08:31:13;;;;;;;9.25;7.40;;;;;;;19.22;100.00;100542.63;5065852;28;20036;-49
2022/06/24 08:33:42;;;;;;;10.23;8.10;;;;;;;19.32;100.00;100535.31;5059125;28;20041;-55
2022/06/24 08:36:10;;;;;;;9.73;8.20;;;;;;;19.34;100.00;100533.31;5066080;28;20049;-54
2022/06/24 08:38:38;;;;;;;10.52;7.78;;;;;;;19.46;100.00;100525.00;5057104;28;20091;-49
2022/06/24 08:41:08;;;;;;;9.93;7.78;;;;;;;19.58;100.00;100529.00;5065084;28;20388;-56
2022/06/24 08:43:37;;;;;;;9.73;7.45;;;;;;;19.56;100.00;100528.31;5058075;28;20043;-55
2022/06/24 08:46:05;;;;;;;10.63;7.22;;;;;;;19.58;100.00;100529.81;5051308;28;20041;-55
2022/06/24 08:48:38;;;;;;;10.25;7.88;;;;;;;19.68;100.00;100535.00;5058744;28;20112;-55
2022/06/24 08:51:07;;;;;;;10.93;7.90;;;;;;;19.75;100.00;100541.31;5059290;28;20071;-50
2022/06/24 08:53:38;;;;;;;9.48;7.72;;;;;;;19.86;100.00;100537.50;5066270;28;20080;-49
2022/06/24 08:56:09;;;;;;;12.10;7.82;;;;;;;19.95;100.00;100534.81;5050467;28;20073;-56
2022/06/24 08:58:37;;;;;;;9.88;7.68;;;;;;;19.98;100.00;100532.66;5067909;28;20040;-56
2022/06/24 09:01:14;;;;;;;12.88;8.98;;;;;;;19.99;100.00;100531.66;5071098;28;20071;-56
2022/06/24 09:03:43;;;;;;;11.07;8.63;;;;;;;20.13;100.00;100534.66;5072545;28;20502;-55
2022/06/24 09:06:13;;;;;;;12.18;9.50;;;;;;;20.18;100.00;100532.28;5075205;28;20063;-47
2022/06/24 09:08:45;;;;;;;13.60;9.23;;;;;;;20.26;100.00;100534.97;5075047;28;20135;-56
2022/06/24 09:11:15;;;;;;;23.65;10.15;;;;;;;20.34;100.00;100532.28;5074875;28;20044;-50
2022/06/24 09:13:45;;;;;;;13.77;9.32;;;;;;;20.43;100.00;100539.22;5074790;28;20526;-56
2022/06/24 09:16:15;;;;;;;10.30;8.65;;;;;;;20.44;100.00;100540.91;5071726;28;20505;-50
2022/06/24 09:18:51;;;;;;;11.50;7.82;;;;;;;20.45;100.00;100536.41;5072149;28;20067;-50
2022/06/24 09:21:24;;;;;;;13.13;8.13;;;;;;;20.65;100.00;100536.81;5074483;28;20415;-54
2022/06/24 09:23:55;;;;;;;11.60;7.20;;;;;;;20.62;100.00;100545.19;5074370;28;20047;-47
2022/06/24 09:26:36;;;;;;;9.35;7.20;;;;;;;20.81;100.00;100545.81;5074055;28;20797;-45
2022/06/24 09:29:05;;;;;;;10.60;7.38;;;;;;;20.87;100.00;100539.75;5071156;28;20449;-44
2022/06/24 09:31:34;;;;;;;9.65;7.15;;;;;;;20.94;100.00;100540.72;5073146;28;20110;-53
2022/06/24 09:34:11;;;;;;;8.65;6.43;;;;;;;21.06;100.00;100541.97;5074820;28;20052;-55
2022/06/24 09:36:41;;;;;;;8.32;5.10;;;;;;;21.17;100.00;100542.59;5074781;28;20527;-56
2022/06/24 09:39:12;;;;;;;9.18;5.78;;;;;;;21.15;100.00;100536.59;5074438;28;20049;-47
2022/06/24 09:41:53;;;;;;;10.05;6.10;;;;;;;21.28;100.00;100534.16;5072828;28;20045;-55
2022/06/24 09:44:21;;;;;;;10.40;7.18;;;;;;;21.15;100.00;100531.25;5070773;28;20102;-45
2022/06/24 09:47:03;;;;;;;11.65;7.35;;;;;;;21.32;100.00;100532.78;5073683;28;20057;-47
2022/06/24 09:49:31;;;;;;;8.88;7.15;;;;;;;21.52;100.00;100537.69;5074609;28;20053;-48
2022/06/24 09:51:59;;;;;;;10.05;6.57;;;;;;;21.49;100.00;100529.97;5074407;28;20062;-56
2022/06/24 09:54:29;;;;;;;9.98;7.03;;;;;;;21.57;100.00;100532.66;5074448;28;20072;-47
2022/06/24 09:57:00;;;;;;;9.00;6.10;;;;;;;21.69;100.00;100539.25;5074656;28;20045;-54
2022/06/24 10:02:18;;;;;;;8.15;6.55;;;;;;;21.90;100.00;100540.38;5071639;28;20106;-55
2022/06/24 10:04:52;;;;;;;8.43;6.38;;;;;;;21.96;100.00;100542.31;5073941;28;20083;-49
2022/06/24 10:07:25;;;;;;;12.57;7.50;;;;;;;22.08;100.00;100542.72;5074153;28;20055;-55
2022/06/24 10:10:04;;;;;;;9.60;7.10;;;;;;;22.20;100.00;100545.78;5073988;28;20117;-55
2022/06/24 10:12:38;;;;;;;10.98;8.05;;;;;;;22.21;100.00;100552.78;5069523;28;20530;-50
2022/06/24 10:15:07;;;;;;;9.95;7.05;;;;;;;22.21;100.00;100550.09;5068352;28;20045;-46
2022/06/24 10:17:37;;;;;;;10.73;8.15;;;;;;;22.23;100.00;100553.44;5066740;28;20400;-49
2022/06/24 10:20:08;;;;;;;11.50;8.38;;;;;;;22.32;100.00;100552.34;5073755;28;20051;-55
2022/06/24 10:22:37;;;;;;;10.80;8.40;;;;;;;22.27;100.00;100557.41;5073466;28;20071;-54
2022/06/24 10:25:08;;;;;;;10.93;8.77;;;;;;;22.37;100.00;100557.16;5073776;28;20056;-52
2022/06/24 10:28:07;;;;;;;10.35;8.43;;;;;;;22.49;100.00;100558.38;5073264;28;20067;-46
2022/06/24 10:30:56;;;;;;;11.93;9.68;;;;;;;22.56;100.00;100561.13;5073068;28;20048;-47
2022/06/24 10:33:28;;;;;;;13.52;9.38;;;;;;;22.67;100.00;100560.66;5058060;28;20395;-53
2022/06/24 10:36:02;;;;;;;12.38;9.00;;;;;;;22.84;100.00;100563.13;5073430;28;20053;-53
2022/06/24 10:38:37;;;;;;;11.98;9.52;;;;;;;22.92;100.00;100557.69;5072192;28;20060;-47
2022/06/24 10:41:07;;;;;;;11.25;9.18;;;;;;;23.03;100.00;100557.19;5073027;28;20044;-48
2022/06/24 10:43:41;;;;;;;11.55;9.93;;;;;;;23.06;100.00;100562.16;5072850;28;20044;-55
2022/06/24 10:46:19;;;;;;;14.25;9.77;;;;;;;23.26;100.00;100551.69;5072945;28;20381;-50
2022/06/24 10:49:01;;;;;;;14.57;10.45;;;;;;;23.27;100.00;100553.38;5072795;28;20048;-55
2022/06/24 10:51:32;;;;;;;12.65;11.35;;;;;;;23.39;100.00;100555.53;5057964;28;20051;-49
2022/06/24 10:54:13;;;;;;;13.80;11.20;;;;;;;23.40;99.77;100549.97;5071451;28;20048;-46
2022/06/24 10:56:44;;;;;;;14.45;10.73;;;;;;;23.54;99.10;100545.56;5072894;28;20044;-54
2022/06/24 10:59:17;;;;;;;13.13;11.57;;;;;;;23.59;95.41;100548.50;5072834;28;20043;-55
2022/06/24 11:01:47;;;;;;;11.93;10.57;;;;;;;23.74;96.91;100545.72;5072422;28;20050;-54
2022/06/24 11:04:19;;;;;;;10.77;9.02;;;;;;;24.05;92.29;100543.72;5072862;28;20060;-55
2022/06/24 11:07:09;;;;;;;11.25;8.82;;;;;;;24.27;87.84;100553.38;5072384;28;20052;-52
2022/06/24 11:09:38;;;;;;;10.65;8.60;;;;;;;24.45;89.65;100543.97;5058348;28;20040;-49
2022/06/24 11:12:26;;;;;;;11.63;9.40;;;;;;;24.42;89.19;100539.81;5070884;28;20131;-55
2022/06/24 11:14:56;;;;;;;10.45;9.27;;;;;;;24.68;89.85;100551.75;5072161;28;20040;-51
2022/06/24 11:17:25;;;;;;;10.90;9.18;;;;;;;25.19;90.29;100549.63;5072147;28;20044;-55
2022/06/24 11:19:54;;;;;;;10.63;9.02;;;;;;;25.40;88.74;100554.88;5072044;28;20052;-56
2022/06/24 11:22:28;;;;;;;11.75;9.38;;;;;;;25.70;84.30;100545.56;5072402;28;20464;-52
2022/06/24 11:24:59;;;;;;;11.40;8.85;;;;;;;25.97;81.46;100551.78;5072519;28;20064;-56
2022/06/24 11:27:35;;;;;;;11.23;8.70;;;;;;;25.89;80.25;100558.22;5072244;28;20059;-53
2022/06/24 11:30:06;;;;;;;10.20;8.48;;;;;;;26.12;80.48;100547.03;5071884;28;20079;-55
2022/06/24 11:32:51;;;;;;;7.75;6.90;;;;;;;26.26;76.35;100549.69;5072471;28;20055;-56
2022/06/24 11:35:20;;;;;;;8.98;6.97;;;;;;;26.51;72.73;100546.31;5056204;28;20045;-54
2022/06/24 11:37:49;;;;;;;10.43;6.70;;;;;;;26.43;74.23;100537.41;5071487;28;20044;-50
2022/06/24 11:40:21;;;;;;;8.60;5.68;;;;;;;26.91;75.92;100535.38;5071724;28;20044;-53
2022/06/24 11:42:49;;;;;;;9.18;7.03;;;;;;;27.12;69.50;100529.66;5072018;28;20044;-55
2022/06/24 11:45:31;;;;;;;9.27;6.50;;;;;;;27.55;71.70;100535.41;5055569;28;20063;-48
2022/06/24 11:47:59;;;;;;;8.27;5.75;;;;;;;28.03;69.87;100542.06;5071770;28;20052;-56